createdAt,value
2018-05-06T00:05:32.411Z,33.4
2018-05-06T00:15:31.641Z,32.9
2018-05-06T00:25:30.895Z,33
2018-05-06T00:35:30.100Z,33.1
2018-05-06T00:45:29.308Z,33.1
2018-05-06T00:55:28.520Z,33.1
2018-05-06T01:05:27.765Z,33.2
2018-05-06T01:15:27.004Z,33.2
2018-05-06T01:25:26.209Z,33.1
2018-05-06T01:35:25.415Z,33.1
2018-05-06T01:45:24.637Z,33.1
2018-05-06T01:55:23.860Z,33.2
2018-05-06T02:05:23.095Z,33.2
2018-05-06T02:15:22.337Z,33.3
2018-05-06T02:25:21.551Z,33.3
2018-05-06T02:35:20.754Z,33.3
2018-05-06T02:45:19.960Z,33.3
2018-05-06T02:55:19.176Z,33.3
2018-05-06T03:05:18.420Z,33.3
2018-05-06T03:15:17.701Z,33.3
2018-05-06T03:25:16.836Z,33.3
2018-05-06T03:35:16.110Z,33.3
2018-05-06T03:45:15.280Z,33.3
2018-05-06T03:55:14.514Z,33.3
2018-05-06T04:05:13.756Z,33.3
2018-05-06T04:15:12.930Z,31.8
2018-05-06T04:25:12.194Z,29
2018-05-06T04:35:11.373Z,29
2018-05-06T04:45:10.600Z,28.4
2018-05-06T04:55:09.823Z,28.1
2018-05-06T05:05:09.037Z,26.9
2018-05-06T05:15:08.292Z,27.1
2018-05-06T05:25:07.482Z,26.7
2018-05-06T05:35:06.711Z,26.4
2018-05-06T05:45:05.916Z,26.8
2018-05-06T05:55:05.161Z,27.1
2018-05-06T06:05:04.400Z,27.4
2018-05-06T06:15:03.631Z,27.8
2018-05-06T06:25:02.814Z,28.1
2018-05-06T06:35:02.037Z,28.6
2018-05-06T06:45:01.254Z,29
2018-05-06T06:55:00.490Z,29.1
2018-05-06T07:04:59.716Z,27.9
2018-05-06T07:14:58.970Z,28.1
2018-05-06T07:24:58.143Z,28.5
2018-05-06T07:34:57.367Z,28.1
2018-05-06T07:44:56.620Z,28
2018-05-06T07:54:55.822Z,28.6
2018-05-06T08:04:55.025Z,28.3
2018-05-06T08:14:54.253Z,28.8
2018-05-06T08:24:53.525Z,29.2
2018-05-06T08:34:52.697Z,29.4
2018-05-06T08:44:51.983Z,29.7
2018-05-06T08:54:51.165Z,30.1
2018-05-06T09:04:50.355Z,30.1
2018-05-06T09:14:49.646Z,30.4
2018-05-06T09:24:48.814Z,31.2
2018-05-06T09:34:48.093Z,31.7
2018-05-06T09:44:47.257Z,32.2
2018-05-06T09:54:46.493Z,32.1
2018-05-06T10:04:45.703Z,32.5
2018-05-06T10:14:44.927Z,33.1
2018-05-06T10:24:44.159Z,33.3
2018-05-06T10:34:43.369Z,32.9
2018-05-06T10:44:42.655Z,33.5
2018-05-06T10:54:41.902Z,33.8
2018-05-06T11:04:41.045Z,33.7
2018-05-06T11:14:40.252Z,34.7
2018-05-06T11:24:39.546Z,35.2
2018-05-06T11:34:38.704Z,35.8
2018-05-06T11:44:37.980Z,36.3
2018-05-06T11:54:37.139Z,36.8
2018-05-06T12:04:36.424Z,37.1
2018-05-06T12:14:35.585Z,37.4
2018-05-06T12:24:34.830Z,37.6
2018-05-06T12:34:34.029Z,37.7
2018-05-06T12:44:33.306Z,37.8
2018-05-06T12:54:32.514Z,37.9
2018-05-06T13:04:31.701Z,38.3
2018-05-06T13:14:30.940Z,38.6
2018-05-06T13:24:30.143Z,38.6
2018-05-06T13:34:29.427Z,37.1
2018-05-06T13:44:28.606Z,37.6
2018-05-06T13:54:27.862Z,38.4
2018-05-06T14:04:27.086Z,39.1
2018-05-06T14:14:26.281Z,39.5
2018-05-06T14:24:25.532Z,39.8
2018-05-06T14:34:24.731Z,40.3
2018-05-06T14:44:23.981Z,40.6
2018-05-06T14:54:23.194Z,40.9
2018-05-06T15:04:22.380Z,41
2018-05-06T15:14:21.622Z,41.1
2018-05-06T15:24:20.836Z,41
2018-05-06T15:34:20.051Z,40.8
2018-05-06T15:44:19.299Z,40.6
2018-05-06T15:54:18.540Z,40.4
2018-05-06T16:04:17.815Z,40.1
2018-05-06T16:14:17.001Z,39.9
2018-05-06T16:24:16.182Z,36.9
2018-05-06T16:34:15.447Z,34.8
2018-05-06T16:44:14.680Z,33.3
2018-05-06T16:54:13.887Z,33.3
2018-05-06T17:04:13.071Z,31.8
2018-05-06T17:14:12.310Z,31.9
2018-05-06T17:24:11.529Z,30.3
2018-05-06T17:34:10.770Z,30.4
2018-05-06T17:44:09.970Z,30.5
2018-05-06T17:54:09.233Z,30.6
2018-05-06T18:04:08.425Z,30.6
2018-05-06T18:14:07.641Z,30.3
2018-05-06T18:24:08.136Z,30.1
2018-05-06T18:34:07.346Z,27.2
2018-05-06T18:44:06.513Z,26.3
2018-05-06T18:54:05.776Z,26.4
2018-05-06T19:04:05.009Z,26.4
2018-05-06T19:14:04.206Z,26.6
2018-05-06T19:24:03.425Z,25.1
2018-05-06T19:34:02.627Z,22.6
2018-05-06T19:44:01.874Z,22.6
2018-05-06T19:54:01.075Z,22.9
2018-05-06T20:04:00.305Z,23.1
2018-05-06T20:13:59.519Z,23.1
2018-05-06T20:23:58.758Z,23.3
2018-05-06T20:33:57.994Z,23.3
2018-05-06T20:43:57.204Z,23.4
2018-05-06T20:53:56.469Z,23.5
2018-05-06T21:03:55.660Z,23.6
2018-05-06T21:13:54.856Z,23.6
2018-05-06T21:23:54.103Z,23.7
2018-05-06T21:33:53.308Z,23.8
2018-05-06T21:43:52.585Z,23.8
2018-05-06T21:53:51.750Z,23.9
2018-05-06T22:03:51.012Z,23.9
2018-05-06T22:13:50.205Z,24
2018-05-06T22:23:49.428Z,24
2018-05-06T22:33:48.703Z,24.1
2018-05-06T22:43:47.873Z,24.1
2018-05-06T22:53:47.128Z,24.2
2018-05-06T23:03:46.310Z,24.2
2018-05-06T23:13:45.534Z,24.3
2018-05-06T23:23:44.871Z,24.3
2018-05-06T23:33:43.996Z,24.3
2018-05-06T23:43:43.217Z,24.4
2018-05-06T23:53:42.435Z,24.4
